createdAt,value
2023-04-04T00:01:20.760Z,21.9
2023-04-04T00:06:57.658Z,21.9
2023-04-04T00:12:49.818Z,21.9
2023-04-04T00:18:26.278Z,21.9
2023-04-04T00:24:03.238Z,22
2023-04-04T00:29:54.600Z,22
2023-04-04T00:35:46.828Z,22
2023-04-04T00:41:22.428Z,22
2023-04-04T00:47:14.815Z,22
2023-04-04T00:52:51.881Z,22
2023-04-04T00:58:43.172Z,22
2023-04-04T01:04:36.161Z,22
2023-04-04T01:10:27.663Z,22
2023-04-04T01:16:03.313Z,22
2023-04-04T01:21:39.445Z,22
2023-04-04T01:27:15.163Z,22
2023-04-04T01:33:06.893Z,22
2023-04-04T01:38:59.728Z,21.9
2023-04-04T01:44:52.472Z,21.9
2023-04-04T01:50:30.725Z,22
2023-04-04T01:55:51.992Z,22
2023-04-04T02:01:43.629Z,22
2023-04-04T02:07:20.280Z,22
2023-04-04T02:13:11.440Z,21.9
2023-04-04T02:18:50.650Z,22
2023-04-04T02:24:26.739Z,22
2023-04-04T02:30:02.666Z,22
2023-04-04T02:35:54.860Z,22
2023-04-04T02:41:46.408Z,22
2023-04-04T02:47:44.110Z,22
2023-04-04T02:53:35.601Z,22.1
2023-04-04T02:59:27.604Z,22
2023-04-04T03:05:05.242Z,22
2023-04-04T03:10:56.489Z,22
2023-04-04T03:16:47.603Z,22
2023-04-04T03:22:24.339Z,22
2023-04-04T03:28:00.835Z,22
2023-04-04T03:33:52.497Z,22
2023-04-04T03:39:43.999Z,22
2023-04-04T03:45:35.432Z,22
2023-04-04T03:51:26.995Z,22
2023-04-04T03:57:18.906Z,22
2023-04-04T04:02:55.366Z,22
2023-04-04T04:08:48.780Z,22
2023-04-04T04:14:40.319Z,22
2023-04-04T04:20:33.014Z,22
2023-04-04T04:26:24.800Z,22
2023-04-04T04:32:16.284Z,22
2023-04-04T04:37:54.765Z,22
2023-04-04T04:43:46.187Z,22
2023-04-04T04:49:38.597Z,22
2023-04-04T04:55:30.992Z,22
2023-04-04T05:01:23.491Z,22
2023-04-04T05:07:15.135Z,22
2023-04-04T05:13:07.108Z,22.1
2023-04-04T05:19:00.162Z,22.1
2023-04-04T05:24:51.533Z,22.1
2023-04-04T05:30:43.356Z,22.1
2023-04-04T05:36:36.045Z,22.1
2023-04-04T05:48:05.249Z,22.1
2023-04-04T05:53:56.638Z,22.1
2023-04-04T05:59:49.071Z,22.1
2023-04-04T06:05:41.626Z,22.1
2023-04-04T06:11:38.455Z,22.1
2023-04-04T06:17:32.759Z,22.1
2023-04-04T06:23:25.125Z,22.1
2023-04-04T06:29:16.773Z,22.1
2023-04-04T06:35:09.303Z,22.1
2023-04-04T06:41:01.412Z,22.1
2023-04-04T06:52:29.792Z,22.1
2023-04-04T06:58:21.656Z,22.1
2023-04-04T07:04:14.883Z,22.1
2023-04-04T07:10:18.637Z,22.1
2023-04-04T07:16:10.731Z,22.1
2023-04-04T07:22:09.357Z,22.1
2023-04-04T07:28:09.919Z,22.1
2023-04-04T07:34:04.305Z,22.1
2023-04-04T07:39:56.060Z,22.1
2023-04-04T07:45:33.375Z,22.1
2023-04-04T07:51:24.664Z,22.1
2023-04-04T07:57:15.927Z,22.1
2023-04-04T08:03:08.708Z,22
2023-04-04T08:09:01.369Z,22
2023-04-04T08:14:53.580Z,22
2023-04-04T08:20:45.675Z,22
2023-04-04T08:26:39.388Z,22
2023-04-04T08:32:41.232Z,22
2023-04-04T08:38:46.658Z,22
2023-04-04T08:44:38.849Z,21.9
2023-04-04T08:50:31.566Z,21.9
2023-04-04T08:56:23.531Z,21.9
2023-04-04T09:02:17.949Z,21.9
2023-04-04T09:08:25.695Z,21.9
2023-04-04T09:14:29.412Z,21.9
2023-04-04T09:20:21.954Z,21.9
2023-04-04T09:26:20.812Z,21.9
2023-04-04T09:31:59.099Z,21.9
2023-04-04T09:37:52.096Z,21.9
2023-04-04T09:43:45.035Z,21.9
2023-04-04T09:49:58.412Z,21.9
2023-04-04T09:56:10.895Z,21.9
2023-04-04T10:02:18.981Z,21.8
2023-04-04T10:08:22.379Z,21.8
2023-04-04T10:14:28.343Z,21.8
2023-04-04T10:20:20.852Z,21.8
2023-04-04T10:26:24.662Z,21.8
2023-04-04T10:32:30.994Z,21.9
2023-04-04T10:38:23.386Z,21.9
2023-04-04T10:44:15.277Z,21.8
2023-04-04T10:50:06.657Z,21.8
2023-04-04T10:56:08.572Z,21.8
2023-04-04T11:02:01.389Z,21.8
2023-04-04T11:14:17.777Z,21.8
2023-04-04T11:20:27.388Z,21.8
2023-04-04T11:26:18.865Z,21.8
2023-04-04T11:32:11.502Z,21.8
2023-04-04T11:38:17.383Z,21.8
2023-04-04T11:44:08.880Z,21.8
2023-04-04T11:50:00.629Z,21.8
2023-04-04T11:55:37.983Z,21.8
2023-04-04T12:01:38.761Z,21.8
2023-04-04T12:07:31.970Z,21.8
2023-04-04T12:13:23.755Z,21.8
2023-04-04T12:19:29.532Z,21.8
2023-04-04T12:25:23.377Z,21.8
2023-04-04T12:31:15.552Z,21.7
2023-04-04T12:37:07.948Z,21.7
2023-04-04T12:42:59.923Z,21.7
2023-04-04T12:48:52.166Z,21.7
2023-04-04T12:55:08.319Z,21.7
2023-04-04T13:01:04.411Z,21.7
2023-04-04T13:06:56.678Z,21.7
2023-04-04T13:12:48.505Z,21.7
2023-04-04T13:18:28.097Z,21.7
2023-04-04T13:24:19.897Z,21.7
2023-04-04T13:30:11.940Z,21.7
2023-04-04T13:36:04.725Z,21.7
2023-04-04T13:41:56.474Z,21.7
2023-04-04T13:47:48.689Z,21.6
2023-04-04T13:53:42.371Z,21.6
2023-04-04T13:59:57.845Z,21.6
2023-04-04T14:06:09.598Z,21.6
2023-04-04T14:12:02.615Z,21.6
2023-04-04T14:17:56.485Z,21.6
2023-04-04T14:23:48.638Z,21.6
2023-04-04T14:29:25.392Z,21.6
2023-04-04T14:35:19.220Z,21.6
2023-04-04T14:41:13.104Z,21.6
2023-04-04T14:47:05.377Z,21.6
2023-04-04T14:52:57.566Z,21.6
2023-04-04T14:59:07.502Z,21.6
2023-04-04T15:05:02.730Z,21.6
2023-04-04T15:10:56.299Z,21.6
2023-04-04T15:22:09.861Z,21.6
2023-04-04T15:28:03.449Z,21.6
2023-04-04T15:33:58.904Z,21.6
2023-04-04T15:39:56.450Z,21.6
2023-04-04T15:45:47.930Z,21.6
2023-04-04T15:51:24.410Z,21.7
2023-04-04T15:57:17.409Z,21.7
2023-04-04T16:03:09.636Z,21.7
2023-04-04T16:09:01.458Z,20.3
2023-04-04T16:14:55.544Z,20.6
2023-04-04T16:20:49.284Z,21
2023-04-04T16:26:40.522Z,21.2
2023-04-04T16:32:33.697Z,21.4
2023-04-04T16:37:56.136Z,21.6
2023-04-04T16:43:52.624Z,21.7
2023-04-04T16:49:50.278Z,21.8
2023-04-04T16:55:44.988Z,21.9
2023-04-04T17:01:41.916Z,22
2023-04-04T17:07:42.391Z,22.1
2023-04-04T17:13:41.672Z,22.2
2023-04-04T17:19:27.027Z,22.3
2023-04-04T17:25:12.741Z,22.3
2023-04-04T17:31:13.294Z,22.4
2023-04-04T17:42:57.819Z,22.6
2023-04-04T17:48:41.617Z,22.6
2023-04-04T17:54:27.505Z,22.8
2023-04-04T18:00:16.270Z,22.8
2023-04-04T18:06:13.963Z,22.9
2023-04-04T18:12:12.320Z,22.9
2023-04-04T18:18:20.424Z,23
2023-04-04T18:24:34.003Z,23.1
2023-04-04T18:30:33.991Z,23.1
2023-04-04T18:36:33.385Z,23.1
2023-04-04T18:42:17.248Z,23.2
2023-04-04T18:48:27.843Z,23.3
2023-04-04T18:54:12.733Z,23.3
2023-04-04T19:00:14.112Z,23.4
2023-04-04T19:06:18.397Z,23.4
2023-04-04T19:12:20.224Z,23.5
2023-04-04T19:18:21.536Z,23.5
2023-04-04T19:30:07.149Z,23.6
2023-04-04T19:36:07.937Z,23.6
2023-04-04T19:42:08.292Z,23.7
2023-04-04T19:48:10.684Z,23.8
2023-04-04T19:54:11.614Z,23.8
2023-04-04T20:00:15.254Z,23.8
2023-04-04T20:06:24.326Z,23.4
2023-04-04T20:12:23.993Z,23.5
2023-04-04T20:18:24.191Z,23.5
2023-04-04T20:24:26.820Z,23.6
2023-04-04T20:30:09.785Z,23.5
2023-04-04T20:36:10.548Z,23.5
2023-04-04T20:42:12.307Z,23.5
2023-04-04T20:48:12.771Z,23.4
2023-04-04T20:54:13.448Z,23.4
2023-04-04T20:59:57.727Z,23.4
2023-04-04T21:06:01.411Z,23.3
2023-04-04T21:12:01.007Z,23.3
2023-04-04T21:17:43.842Z,23.3
2023-04-04T21:23:45.292Z,23.2
2023-04-04T21:29:45.062Z,23.1
2023-04-04T21:35:44.375Z,23.1
2023-04-04T21:41:39.147Z,23
2023-04-04T21:47:33.014Z,23
2023-04-04T21:53:27.244Z,22.9
2023-04-04T21:59:19.727Z,22.9
2023-04-04T22:10:59.332Z,22.8
2023-04-04T22:16:52.487Z,22.7
2023-04-04T22:22:44.206Z,22.6
2023-04-04T22:28:35.629Z,22.6
2023-04-04T22:34:27.023Z,22.5
2023-04-04T22:40:19.191Z,22.5
2023-04-04T22:46:11.111Z,22.4
2023-04-04T22:51:48.267Z,22.4
2023-04-04T22:57:40.225Z,22.3
2023-04-04T23:03:32.696Z,22.3
2023-04-04T23:09:24.462Z,22.3
2023-04-04T23:15:01.217Z,22.3
2023-04-04T23:20:53.334Z,22.2
2023-04-04T23:26:44.428Z,22.2
2023-04-04T23:32:36.780Z,22.1
2023-04-04T23:38:28.450Z,22.1
2023-04-04T23:44:19.788Z,22
2023-04-04T23:55:33.324Z,21.9
